Disclaimer

Please do not use the information listed here in-flight or in-navigation, as they are not provided to us by the airports but are provided by volunteers, so they might be outdated.

Search


Regions


Airport information page

Radio informations:
Tower (TWR) - 118.1 MHz
Ground (GND) - 121.7 MHz
Approach (APP) - 121.3 MHz

Airport informations:
Latitude: 25° 55' 15.01" S
Longitude: 032° 34' 21.38" E
Elevation: 145 feet - 44 meters
Operating hours: 24 hour operations
Operating agency: Military-civil joint use airport
Timezone: UTC+2
Fuel: Jet A1, without icing nhibitor.

100/130 octane gasoline, leaded, MIL-L-5572F (GREEN)

Runway information:
05/23 - 12008 x 148 feet< - >3660 x 45 meters
10/28 - 5577 x 148 feet< - >1700 x 45 meters

Recent METARs:
FQMA 141600Z 10011KT 9999 FEW030 25/18 Q1015 NOSIG
FQMA 141600Z 10011KT 9999 FEW030 25/18 Q1015 NOSIG
FQMA 141700Z 09009KT 9999 FEW025 24/18 Q1015 NOSIG

Airport on the map: